Aviation Digital Data Service (ADDS)

Output produced by METARs form (0244 UTC 24 July 2017)
found at http://www.aviationweather.gov/adds/metars/
 
DAUA 240200Z 06011KT CAVOK 32/// Q1012
TAF DAUA 232300Z 2400/2424 08012KT CAVOK 
     PROB30 2407/2412 11022KT 4000 DRSA
       
DABB 240230Z 25008KT 8000 FEW023 SCT040 30/15 Q1010
TAF DABB 231700Z 2318/2418 04014KT 6000 SCT023TCU 
     PROB40 
     TEMPO 2318/2324 06015G30KT 4000 -TSRA SCT020CB 
     BECMG 2322/2324 24006KT 
     PROB40 
     TEMPO 2400/2408 2000 BR SCT008
       
DABT 240200Z 19006KT 9999 FEW026 27/13 Q1023
TAF DABT 231700Z 2318/2418 22012KT 6000 SCT030TCU 
     TEMPO 2318/2324 4000 -TSRA SCT026CB 
     PROB40 
     TEMPO 2318/2322 20015G25KT 
     BECMG 2322/2324 VRB02KT
       
DAOR 240200Z 09003KT CAVOK 31/03 Q1020
TAF DAOR 232300Z 2400/2409 18008KT 8000 SCT033 SCT100 
     PROB30 2400/2403 3000 DU
       
DAAE 240200Z 32008KT 5000 FEW013 SCT020 26/25 Q1014
TAF DAAE 231700Z 2318/2418 06014KT 6000 SCT020TCU 
     TEMPO 2318/2324 06015G30KT 4000 -TSRA SCT020CB 
     BECMG 2322/2324 24006KT 
     PROB40 
     TEMPO 2400/2408 2000 BR SCT008
       
DAUB 240200Z 07007KT 9999 SCT040 34/18 Q1014
TAF DAUB 232300Z 2400/2424 08012KT 8000 FEW040TCU 
     TEMPO 2412/2418 22015G30KT 3000 DRSA 
     PROB30 
     TEMPO 2413/2419 5000 -TSRA FEW033CB 
     BECMG 2422/2424 02005KT
       
TAF DAAD 231700Z 2318/2403 33012KT 6000 SCT030 
     PROB40 
     TEMPO 2318/2322 VRB15G30KT 4000 -TSRA FEW026CB 
     BECMG 2322/2402 25010KT
       
DAOI 240200Z 00000KT CAVOK 27/22 Q1016
TAF DAOI 232300Z 2400/2424 VRB02KT 8000 NSC 
     BECMG 2402/2404 FEW023 SCT030 
     BECMG 2409/2411 32012KT 9999 FEW030 
     BECMG 2414/2416 36016KT CAVOK 
     BECMG 2418/2420 VRB02KT 9999 FEW026
       
DABC 240230Z 19008KT 8000 SCT033 29/10 Q1018
TAF DABC 231700Z 2318/2418 30012KT 6000 SCT030TCU 
     TEMPO 2318/2324 4000 -TSRA SCT026CB 
     PROB40 
     TEMPO 2318/2322 20015G25KT 
     BECMG 2322/2324 VRB02KT 
     PROB40 
     TEMPO 2402/2407 3000 BR SCT010
       
DAAG 240230Z 21003KT 7000 FEW010 28/25 Q1016
TAF DAAG 232300Z 2400/2424 VRB02KT 6000 FEW020 
     PROB40 
     TEMPO 2400/2406 3000 BR BKN010 
     BECMG 2409/2411 35010KT 
     BECMG 2418/2421 VRB02KT
       
DAAJ 240200Z 08010KT CAVOK 28/05 Q1019
TAF DAAJ 232300Z 2400/2424 04008KT CAVOK
       
DAUE 240200Z 07003KT CAVOK 31/10 Q1018
DAUO 240200Z 01012KT 4000 HZ NSC 37/13 Q1012
TAF DAUO 232300Z 2400/2409 VRB02KT 9999 FEW046
       
DAUG 240200Z 00000KT 8000 NSC 34/02 Q1017
TAF DAUG 232300Z 2400/2424 VRB02KT 7000 NSC 
     PROB30 2400/2404 3000 HZ 
     BECMG 2408/2411 22014KT
       
DAUH 240230Z 00000KT CAVOK 32/09 Q1014
TAF DAUH 232300Z 2400/2424 VRB02KT CAVOK 
     BECMG 2408/2411 22010KT 
     BECMG 2418/2422 VRB02KT
       
DAAP 240200Z 13006KT CAVOK 27/09 Q1016
TAF DAAP 232300Z 2400/2409 10010KT CAVOK 
     BECMG 2402/2405 VRB02KT
       
DAUZ 240200Z 07007KT CAVOK 26/M02 Q1017
TAF DAUZ 232300Z 2400/2424 08010KT CAVOK 
     TEMPO 2402/2406 VRB02KT 
     BECMG 2421/2424 VRB02KT
       
TAF DAUI 232300Z 2400/2424 08014KT 8000 NSC 
     PROB30 2400/2403 08015G25KT 5000 DRSA 
     PROB40 2407/2412 12024KT 3000 DRSA
       
DAAV 240200Z 29005KT 6000 SCT016 BKN033 26/25 Q1014
TAF DAAV 231700Z 2318/2418 02014KT 6000 SCT020TCU 
     TEMPO 2318/2324 06015G30KT 4000 -TSRA SCT020CB 
     BECMG 2322/2324 24006KT 
     PROB40 
     TEMPO 2400/2408 2000 BR SCT008
       
DAUL 240000Z 09010KT 7000 FEW030 31/14 Q1021
TAF DAUL 232300Z 2400/2409 02010KT 7000 FEW030 
     PROB40 
     TEMPO 2400/2403 02015G25KT 4000 -TSRA FEW033CB 
     BECMG 2402/2405 VRB02KT
       
DAOV 240200Z 12005KT 9999 FEW030 25/14 Q1018
TAF DAOV 232300Z 2400/2409 VRB02KT 9999 FEW030 
     BECMG 2302/2304 6000 FEW016 
     PROB40 
     TEMPO 2405/2408 3000 BR SCT013
       
DAAY 232300Z 01008KT 7000 SCT030 31/10 Q1026
TAF DAAY 231700Z 2318/2403 18020KT 5000 FEW030 SCT100 
     TEMPO 2318/2324 FEW026CB SCT030 
     PROB30 
     TEMPO 2319/2323 -TSRA 
     BECMG 2400/2402 18012KT FEW026 SCT100
       
DAOO 240230Z 26004KT 9999 FEW026 21/14 Q1016
TAF DAOO 232300Z 2400/2424 VRB02KT 9999 FEW026 SCT100 
     BECMG 2409/2411 32012KT CAVOK 
     BECMG 2417/2419 VRB02KT 9999 FEW030
       
DAOL 240100Z 30006KT 8000 SCT026 25/10 Q1017
DAUU 240200Z 00000KT CAVOK 32/01 Q1014
TAF DAUU 232300Z 2400/2409 12008KT CAVOK
       
DAAS 240200Z 00000KT 8000 FEW030 SCT100 26/09 Q1022
TAF DAAS 231700Z 2318/2418 20012KT 6000 SCT030TCU 
     TEMPO 2318/2324 4000 -TSRA SCT026CB 
     PROB30 
     TEMPO 2318/2322 20015G25KT 
     BECMG 2322/2324 VRB02KT 
     PROB40 
     TEMPO 2402/2407 3000 BR SCT010
       
DAAT 240230Z 00000KT CAVOK 24/M07 Q1021
TAF DAAT 232300Z 2400/2424 08010KT CAVOK TEMOP 2400/2406 VRB02KT 
     PROB30 
     TEMPO 2407/2411 12015G25KT
       
DABS 240200Z 16004KT 8000 FEW040 23/12 Q1022
TAF DABS 231700Z 2318/2418 12012KT 6000 FEW040TCU 
     TEMPO 2318/2324 4000 -TSRA SCT026CB 
     PROB30 
     TEMPO 2318/2322 20015G25KT 
     BECMG 2322/2324 16006KT
       
DAOB 240200Z 28004KT 9999 SCT026 23/15 Q1023
TAF DAOB 232300Z 2400/2424 VRB02KT 9999 SCT026 
     PROB40 
     TEMPO 2400/2406 26015G25KT 5000 -TSRA FEW023CB 
     BECMG 2408/2411 30012KT
       
TAF DAFH 231700Z 2318/2403 19010KT 9999 FEW033 
     PROB30 
     TEMPO 2318/2321 19015G25KT 4000 DRSA FEW030CB
       
DAUT 240200Z 07009KT CAVOK 32/03 Q1014
TAF DAUT 232300Z 2400/2409 10010KT CAVOK
       
DAOF 240100Z 32004KT 7000 NSC 34/06 Q1015
TAF DAOF 232300Z 2400/2409 02008KT 6000 FEW046 
     PROB30 2400/2403 3000 HZ
       
DAON 240230Z 00000KT 9999 SCT026 26/06 Q1018
TAF DAON 232300Z 2400/2424 VRB02KT 9999 SCT026 SCT100 
     BECMG 2403/2405 FEW030 
     BECMG 2410/2412 36012KT CAVOK 
     BECMG 2416/2419 VRB02KT 9999 FEW030
       
DAUK 240200Z 04007KT CAVOK 36/13 Q1014
TAF DAUK 232300Z 2400/2409 VRB02KT CAVOK